Ar Rutbah, Iraq
Current Conditions -  °F | °C
As of 1:55 AM on Tuesday 21 Oct 2014 (Local Time) from KQAJ Reporting Station
Haze Haze  
Wind Chill: 84°   Ceiling: Unl
Heat Index: 84°   Visibility: 6mi
Dew Point: 50°   Wind: 7mph
Humidity: 30%   Direction: 360°N
Pressure: 29.8"   Gusts: NA
Location:  33.04°N, 40.3°E
Report Text: KQAJ 202255Z 36006KT 9000 HZ SCT180 29/10 A2980 RMK AO2 SLP082 T02890098
Loading
Personal Weather Stations






























Interactive Weather Map New forecast layout! Learn more

10-Day Weather Forecast

Advertisements
Track Severe Weather on mobile